Airfield :
LOGIN :

Register | Disclaimer

   EN    FR    IT 

 










Legend :    VFR   Marginal VFR   IFR   Intensive IFR   Very Intensive IFR
Visi :
Ceiling :
>= 8 km
>= 3000ft
5 to 8 km
1000 to 3000 ft
1500m to 5 km
500 to 1000 ft
800 to 1500m
200 to 500 ft
< 800m
< 200 ft
Symbols :   Thunderstorms  Fog  Heavy snow  Heavy precipitations  Wind > 20 kt
SIGMETs :     Misc.  Thunderstorms  Icing  Turbulence  Mountain Waves  Volcanic Ashes






- Airport Elevation : 939 ft


LKKB - Kbely Air Base

CURRENT METAR :
  • 151500Z 20008KT 150V230 CAVOK 31/12 Q1012 NOSIG

EXPIRED METARs :
  • 151400Z 19006KT 120V240 CAVOK 31/12 Q1013 NOSIG
  • 151300Z VRB02KT CAVOK 31/11 Q1013 NOSIG
  • 151200Z 20008KT 150V230 CAVOK 30/10 Q1014 NOSIG
  • 151100Z VRB02KT CAVOK 29/12 Q1014 NOSIG

TAF TAF LKKB
Valid from the 15 at 12:00 until the 16 at 12:00 UTC


151100Z 1512/1612 14006KT CAVOK
BECMG 1517/1519 12008KT
BECMG 1604/1606 24012KT
TEMPO 1606/1612 28016KT 7000 SHRA SCT025TCU BKN040



MET'MAP, your aeronautical weather chart ! - Copyright ORBIFLY December 2007 - Disclaimer

ORBIFLY MET'MAP TEAM :

Programming & Development : Alexandra Zaïnal
Original concept : Baudouin d'Aumeries
Technical & hardware support : Manuel Goepfert
Assistance : Marc-Olivier Méhu




SOURCES & CREDITS :

   NOAA